Amantha, North Carolina
Current Conditions -  °F | °C
As of 7:15 PM on Sunday 21 Dec 2014 (Local Time) from KTNB Reporting Station
Haze Haze  
Wind Chill: 35°   Ceiling: NA
Heat Index: 35°   Visibility: 3mi
Dew Point: 35°   Wind: 3mph
Humidity: 100%   Direction: 140°SE
Pressure: 30.15"   Gusts: NA
Location:  36.2666°N, 81.8431°W
Report Text: KTNB 220015Z AUTO 14003KT 3SM BR 02/02 A3015 RMK AO2 SKY OBSCURED T00180018
Loading
Personal Weather Stations






























Interactive Weather Map New forecast layout! Learn more

10-Day Weather Forecast

Advertisements
Track Severe Weather on mobile